createdAt,value
2018-05-03T00:00:44.332Z,7.43
2018-05-03T00:01:49.273Z,9.50
2018-05-03T00:02:54.213Z,9.10
2018-05-03T00:03:58.381Z,8.13
2018-05-03T00:05:02.714Z,8.30
2018-05-03T00:06:07.652Z,7.40
2018-05-03T00:07:11.816Z,9.40
2018-05-03T00:08:15.985Z,8.00
2018-05-03T00:09:20.160Z,13.67
2018-05-03T00:10:24.512Z,8.00
2018-05-03T00:11:28.685Z,9.90
2018-05-03T00:12:33.617Z,9.80
2018-05-03T00:13:38.612Z,8.17
2018-05-03T00:14:42.790Z,10.07
2018-05-03T00:15:46.977Z,10.77
2018-05-03T00:16:51.904Z,8.33
2018-05-03T00:17:56.842Z,10.43
2018-05-03T00:19:01.035Z,13.73
2018-05-03T00:20:06.005Z,8.93
2018-05-03T00:21:10.377Z,7.93
2018-05-03T00:22:15.304Z,8.93
2018-05-03T00:23:20.238Z,8.80
2018-05-03T00:24:25.190Z,10.67
2018-05-03T00:25:30.193Z,8.53
2018-05-03T00:26:35.317Z,16.10
2018-05-03T00:27:40.250Z,9.57
2018-05-03T00:28:45.190Z,10.43
2018-05-03T00:29:50.134Z,10.33
2018-05-03T00:30:54.300Z,10.80
2018-05-03T00:31:58.634Z,13.27
2018-05-03T00:33:03.569Z,10.87
2018-05-03T00:34:07.733Z,11.30
2018-05-03T00:35:11.905Z,13.10
2018-05-03T00:36:16.080Z,13.63
2018-05-03T00:37:21.156Z,10.10
2018-05-03T00:38:25.324Z,11.90
2018-05-03T00:39:30.269Z,13.07
2018-05-03T00:40:34.442Z,12.97
2018-05-03T00:41:38.609Z,13.10
2018-05-03T00:42:43.141Z,18.40
2018-05-03T00:43:47.314Z,14.10
2018-05-03T00:44:51.493Z,14.70
2018-05-03T00:45:55.664Z,16.40
2018-05-03T00:46:59.850Z,11.23
2018-05-03T00:48:04.449Z,11.47
2018-05-03T00:49:09.380Z,14.00
2018-05-03T00:50:14.323Z,11.63
2018-05-03T00:51:18.522Z,14.30
2018-05-03T00:52:23.461Z,19.70
2018-05-03T00:53:27.856Z,12.83
2018-05-03T00:54:48.609Z,12.33
2018-05-03T00:55:52.797Z,12.57
2018-05-03T00:56:56.973Z,12.73
2018-05-03T00:58:01.914Z,12.43
2018-05-03T00:59:06.893Z,17.60
2018-05-03T01:00:11.076Z,14.63
2018-05-03T01:01:15.257Z,14.10
2018-05-03T01:02:20.193Z,15.00
2018-05-03T01:03:25.139Z,15.50
2018-05-03T01:04:29.340Z,17.10
2018-05-03T01:05:33.599Z,14.10
2018-05-03T01:06:37.781Z,17.23
2018-05-03T01:07:41.961Z,13.73
2018-05-03T01:08:47.370Z,14.63
2018-05-03T01:09:51.542Z,16.07
2018-05-03T01:10:55.712Z,17.30
2018-05-03T01:12:00.653Z,15.93
2018-05-03T01:13:04.842Z,18.00
2018-05-03T01:14:09.813Z,17.20
2018-05-03T01:15:13.980Z,16.50
2018-05-03T01:16:18.926Z,22.77
2018-05-03T01:17:24.321Z,14.90
2018-05-03T01:18:28.505Z,14.97
2018-05-03T01:19:32.690Z,15.40
2018-05-03T01:20:36.871Z,13.20
2018-05-03T01:21:41.809Z,15.47
2018-05-03T01:22:46.952Z,22.53
2018-05-03T01:23:51.990Z,17.10
2018-05-03T01:24:56.182Z,16.43
2018-05-03T01:26:01.126Z,15.33
2018-05-03T01:27:05.292Z,25.80
2018-05-03T01:28:09.841Z,22.13
2018-05-03T01:29:14.787Z,17.87
2018-05-03T01:30:18.983Z,17.67
2018-05-03T01:31:23.953Z,14.90
2018-05-03T01:32:28.135Z,16.67
2018-05-03T01:33:32.529Z,17.17
2018-05-03T01:34:37.482Z,15.17
2018-05-03T01:37:27.189Z,15.87
2018-05-03T01:38:31.360Z,15.73
2018-05-03T01:39:36.333Z,19.60
2018-05-03T01:40:40.611Z,18.53
2018-05-03T01:41:44.824Z,17.20
2018-05-03T01:42:49.004Z,18.40
2018-05-03T01:43:53.176Z,16.43
2018-05-03T01:44:57.462Z,19.07
2018-05-03T01:46:01.874Z,17.70
2018-05-03T01:47:06.826Z,19.10
2018-05-03T01:48:10.996Z,19.10
2018-05-03T01:49:15.954Z,26.73
2018-05-03T01:50:20.138Z,21.63
2018-05-03T01:51:25.472Z,25.73
2018-05-03T01:52:30.421Z,18.50
2018-05-03T01:53:34.593Z,29.00
2018-05-03T01:54:38.774Z,19.53
2018-05-03T01:55:42.945Z,20.23
2018-05-03T01:56:47.147Z,19.30
2018-05-03T01:57:52.089Z,19.20
2018-05-03T01:58:56.295Z,17.40
2018-05-03T02:00:00.465Z,17.00
2018-05-03T02:01:04.653Z,27.87
2018-05-03T02:02:08.928Z,15.93
2018-05-03T02:03:13.182Z,16.27
2018-05-03T02:04:17.369Z,17.77
2018-05-03T02:05:21.536Z,16.37
2018-05-03T02:06:26.480Z,14.90
2018-05-03T02:07:30.656Z,13.40
2018-05-03T02:08:34.842Z,11.73
2018-05-03T02:09:39.021Z,18.70
2018-05-03T02:10:43.214Z,18.03
2018-05-03T02:11:48.153Z,19.43
2018-05-03T02:12:52.325Z,13.43
2018-05-03T02:13:56.531Z,17.03
2018-05-03T02:15:00.752Z,15.03
2018-05-03T02:16:04.952Z,14.33
2018-05-03T02:17:09.186Z,13.73
2018-05-03T02:18:14.121Z,16.17
2018-05-03T02:19:19.070Z,19.73
2018-05-03T02:20:23.669Z,14.93
2018-05-03T02:21:27.845Z,14.03
2018-05-03T02:22:32.060Z,18.30
2018-05-03T02:23:36.229Z,16.37
2018-05-03T02:24:40.396Z,14.37
2018-05-03T02:25:44.617Z,12.40
2018-05-03T02:26:49.548Z,13.23
2018-05-03T02:27:54.480Z,11.63
2018-05-03T02:28:59.425Z,13.60
2018-05-03T02:30:03.601Z,18.10
2018-05-03T02:31:08.589Z,19.80
2018-05-03T02:32:12.771Z,12.07
2018-05-03T02:33:16.952Z,14.47
2018-05-03T02:34:21.122Z,15.27
2018-05-03T02:35:25.298Z,12.77
2018-05-03T02:36:29.492Z,14.40
2018-05-03T02:37:33.677Z,12.33
2018-05-03T02:38:37.854Z,10.73
2018-05-03T02:39:42.023Z,10.30
2018-05-03T02:40:46.965Z,13.30
2018-05-03T02:41:51.195Z,11.63
2018-05-03T02:42:55.439Z,11.87
2018-05-03T02:43:59.605Z,10.00
2018-05-03T02:45:03.777Z,15.87
2018-05-03T02:46:07.948Z,18.03
2018-05-03T02:47:12.126Z,14.90
2018-05-03T02:48:16.326Z,8.60
2018-05-03T02:49:21.273Z,13.13
2018-05-03T02:50:25.450Z,13.33
2018-05-03T02:51:30.376Z,11.17
2018-05-03T02:52:35.314Z,10.37
2018-05-03T02:53:40.274Z,14.37
2018-05-03T02:54:44.483Z,15.40
2018-05-03T02:55:48.689Z,12.17
2018-05-03T02:56:52.852Z,16.27
2018-05-03T02:58:18.616Z,16.40
2018-05-03T03:01:30.805Z,13.27
2018-05-03T03:02:59.219Z,11.80
2018-05-03T03:04:26.792Z,14.53
2018-05-03T03:05:52.683Z,19.47
2018-05-03T03:09:31.230Z,12.00
2018-05-03T03:15:32.149Z,13.50
2018-05-03T03:16:59.963Z,15.80
2018-05-03T03:18:29.961Z,15.03
2018-05-03T03:19:52.658Z,13.60
2018-05-03T03:21:20.225Z,17.83
2018-05-03T03:22:47.837Z,8.73
2018-05-03T03:24:15.539Z,10.00
2018-05-03T03:27:43.240Z,12.20
2018-05-03T03:29:10.970Z,14.03
2018-05-03T03:30:39.814Z,19.77
2018-05-03T03:32:07.410Z,15.10
2018-05-03T03:33:30.248Z,13.40
2018-05-03T03:34:34.412Z,19.73
2018-05-03T03:37:39.039Z,8.03
2018-05-03T03:40:56.159Z,12.30
2018-05-03T03:42:01.146Z,16.63
2018-05-03T03:43:05.389Z,12.90
2018-05-03T03:44:27.343Z,16.57
2018-05-03T03:45:31.512Z,11.77
2018-05-03T03:46:35.680Z,14.97
2018-05-03T03:47:39.845Z,9.27
2018-05-03T03:48:44.025Z,10.43
2018-05-03T03:49:48.193Z,13.77
2018-05-03T03:50:52.356Z,14.80
2018-05-03T03:51:56.517Z,15.30
2018-05-03T03:53:00.721Z,16.57
2018-05-03T03:54:04.949Z,15.37
2018-05-03T03:55:09.141Z,8.77
2018-05-03T03:56:14.078Z,16.13
2018-05-03T03:57:18.238Z,17.83
2018-05-03T03:58:22.392Z,12.43
2018-05-03T03:59:26.896Z,17.43
2018-05-03T04:00:31.823Z,12.10
2018-05-03T04:01:36.757Z,11.90
2018-05-03T04:02:41.692Z,9.73
2018-05-03T04:03:45.935Z,14.90
2018-05-03T04:04:50.844Z,21.83
2018-05-03T04:05:55.287Z,14.70
2018-05-03T04:06:59.449Z,12.83
2018-05-03T04:08:04.530Z,14.60
2018-05-03T04:09:08.689Z,14.43
2018-05-03T04:10:12.846Z,11.53
2018-05-03T04:11:17.000Z,10.30
2018-05-03T04:12:21.929Z,15.23
2018-05-03T04:13:26.881Z,14.33
2018-05-03T04:14:31.077Z,10.40
2018-05-03T04:15:35.289Z,11.03
2018-05-03T04:16:39.464Z,12.80
2018-05-03T04:18:01.490Z,15.27
2018-05-03T04:19:25.026Z,7.80
2018-05-03T04:21:02.664Z,18.17
2018-05-03T04:22:24.565Z,11.20
2018-05-03T04:23:41.378Z,13.23
2018-05-03T04:25:03.383Z,6.73
2018-05-03T04:26:07.627Z,9.30
2018-05-03T04:27:11.785Z,7.20
2018-05-03T04:28:15.956Z,9.53
2018-05-03T04:29:20.112Z,6.07
2018-05-03T04:30:24.265Z,17.13
2018-05-03T04:31:28.509Z,14.90
2018-05-03T04:32:33.429Z,8.97
2018-05-03T04:33:38.353Z,12.10
2018-05-03T04:34:43.299Z,12.47
2018-05-03T04:35:48.212Z,9.63
2018-05-03T04:36:53.165Z,11.87
2018-05-03T04:37:57.333Z,12.13
2018-05-03T04:39:02.284Z,13.40
2018-05-03T04:40:07.208Z,8.03
2018-05-03T04:41:12.149Z,19.03
2018-05-03T04:42:16.310Z,11.90
2018-05-03T04:43:20.498Z,9.73
2018-05-03T04:44:24.724Z,9.23
2018-05-03T04:45:28.876Z,12.93
2018-05-03T04:46:33.801Z,10.90
2018-05-03T04:47:38.728Z,18.90
2018-05-03T04:48:42.908Z,13.87
2018-05-03T04:49:47.116Z,19.93
2018-05-03T04:50:51.295Z,11.40
2018-05-03T04:51:55.448Z,8.33
2018-05-03T04:52:59.602Z,16.03
2018-05-03T04:54:03.841Z,10.13
2018-05-03T04:55:08.722Z,15.17
2018-05-03T04:56:13.328Z,11.50
2018-05-03T04:57:17.483Z,12.13
2018-05-03T04:58:21.640Z,13.90
2018-05-03T04:59:25.809Z,10.60
2018-05-03T05:00:29.977Z,16.60
2018-05-03T05:01:34.960Z,11.47
2018-05-03T05:02:39.122Z,16.47
2018-05-03T05:03:44.045Z,13.10
2018-05-03T05:04:48.986Z,11.73
2018-05-03T05:05:53.149Z,9.40
2018-05-03T05:06:57.333Z,19.20
2018-05-03T05:08:01.498Z,9.60
2018-05-03T05:09:06.442Z,10.00
2018-05-03T05:10:10.596Z,22.07
2018-05-03T05:11:14.774Z,8.93
2018-05-03T05:12:18.945Z,17.33
2018-05-03T05:13:23.111Z,13.57
2018-05-03T05:14:27.473Z,11.73
2018-05-03T05:15:32.411Z,11.80
2018-05-03T05:16:37.342Z,13.00
2018-05-03T05:17:41.523Z,11.07
2018-05-03T05:18:45.680Z,13.30
2018-05-03T05:19:49.884Z,17.10
2018-05-03T05:20:54.057Z,10.63
2018-05-03T05:21:58.232Z,10.47
2018-05-03T05:23:02.393Z,12.57
2018-05-03T05:24:06.696Z,10.73
2018-05-03T05:25:10.822Z,10.37
2018-05-03T05:26:15.767Z,11.33
2018-05-03T05:27:20.369Z,10.13
2018-05-03T05:28:25.301Z,9.80
2018-05-03T05:29:29.474Z,13.97
2018-05-03T05:30:33.637Z,18.57
2018-05-03T05:31:37.814Z,13.77
2018-05-03T05:32:42.817Z,12.67
2018-05-03T05:33:47.069Z,10.67
2018-05-03T05:34:51.282Z,10.67
2018-05-03T05:35:55.437Z,12.10
2018-05-03T05:36:59.612Z,15.27
2018-05-03T05:38:03.917Z,12.20
2018-05-03T05:39:08.085Z,14.37
2018-05-03T05:40:12.270Z,14.23
2018-05-03T05:41:16.479Z,13.40
2018-05-03T05:42:20.637Z,7.90
2018-05-03T05:43:25.626Z,11.83
2018-05-03T05:44:29.830Z,18.90
2018-05-03T05:45:33.989Z,11.70
2018-05-03T05:46:38.921Z,11.23
2018-05-03T05:47:43.848Z,9.93
2018-05-03T05:48:48.802Z,9.90
2018-05-03T05:49:53.046Z,10.87
2018-05-03T05:50:57.278Z,11.33
2018-05-03T05:52:01.416Z,9.47
2018-05-03T05:53:05.572Z,16.20
2018-05-03T05:54:09.741Z,11.00
2018-05-03T05:55:13.942Z,12.17
2018-05-03T05:56:18.879Z,11.23
2018-05-03T05:57:23.043Z,9.37
2018-05-03T05:58:27.214Z,10.97
2018-05-03T05:59:31.532Z,22.33
2018-05-03T06:00:35.727Z,11.03
2018-05-03T06:01:39.902Z,11.80
2018-05-03T06:02:44.429Z,11.50
2018-05-03T06:03:49.356Z,14.60
2018-05-03T06:04:54.276Z,8.37
2018-05-03T06:05:58.441Z,13.30
2018-05-03T06:07:02.678Z,14.53
2018-05-03T06:08:07.242Z,13.53
2018-05-03T06:09:11.406Z,7.30
2018-05-03T06:10:15.572Z,9.83
2018-05-03T06:11:19.745Z,15.60
2018-05-03T06:12:24.708Z,11.40
2018-05-03T06:13:28.880Z,11.40
2018-05-03T06:14:33.044Z,13.10
2018-05-03T06:15:37.301Z,12.27
2018-05-03T06:16:41.465Z,8.43
2018-05-03T06:17:45.625Z,13.27
2018-05-03T06:18:49.890Z,12.13
2018-05-03T06:19:54.056Z,11.60
2018-05-03T06:20:58.989Z,10.73
2018-05-03T06:22:03.923Z,9.13
2018-05-03T06:23:08.147Z,8.60
2018-05-03T06:24:12.358Z,9.70
2018-05-03T06:25:16.525Z,10.60
2018-05-03T06:26:20.767Z,14.97
2018-05-03T06:27:24.986Z,9.87
2018-05-03T06:28:29.157Z,10.87
2018-05-03T06:29:33.333Z,12.40
2018-05-03T06:30:37.505Z,17.10
2018-05-03T06:31:41.731Z,14.07
2018-05-03T06:32:45.914Z,11.03
2018-05-03T06:33:50.081Z,12.10
2018-05-03T06:34:54.261Z,12.60
2018-05-03T06:35:58.573Z,9.50
2018-05-03T06:37:02.772Z,11.40
2018-05-03T06:38:06.954Z,13.03
2018-05-03T06:39:11.967Z,7.63
2018-05-03T06:40:16.170Z,13.53
2018-05-03T06:41:20.402Z,10.77
2018-05-03T06:42:24.574Z,11.27
2018-05-03T06:43:28.759Z,8.83
2018-05-03T06:44:32.946Z,14.47
2018-05-03T06:45:38.146Z,11.83
2018-05-03T06:46:42.354Z,17.43
2018-05-03T06:47:46.530Z,9.87
2018-05-03T06:48:50.702Z,9.87
2018-05-03T06:49:55.637Z,11.90
2018-05-03T06:51:00.582Z,7.50
2018-05-03T06:52:04.814Z,18.93
2018-05-03T06:53:08.992Z,12.27
2018-05-03T06:54:13.179Z,18.00
2018-05-03T06:55:18.145Z,13.30
2018-05-03T06:56:22.320Z,16.13
2018-05-03T06:57:26.541Z,12.60
2018-05-03T06:58:31.561Z,7.40
2018-05-03T06:59:35.711Z,9.43
2018-05-03T07:00:39.873Z,7.40
2018-05-03T07:01:44.125Z,8.53
2018-05-03T07:02:48.334Z,13.87
2018-05-03T07:03:52.541Z,12.90
2018-05-03T07:04:57.479Z,7.00
2018-05-03T07:06:01.659Z,15.73
2018-05-03T07:07:06.605Z,11.00
2018-05-03T07:08:10.948Z,7.67
2018-05-03T07:09:15.122Z,12.10
2018-05-03T07:10:20.133Z,9.63
2018-05-03T07:11:24.301Z,20.17
2018-05-03T07:12:28.496Z,9.23
2018-05-03T07:13:33.099Z,9.23
2018-05-03T07:14:37.261Z,9.97
2018-05-03T07:15:41.440Z,14.67
2018-05-03T07:16:45.614Z,13.77
2018-05-03T07:17:50.552Z,10.93
2018-05-03T07:18:55.551Z,12.30
2018-05-03T07:19:59.738Z,17.73
2018-05-03T07:21:03.906Z,15.60
2018-05-03T07:22:08.125Z,10.03
2018-05-03T07:23:12.293Z,17.13
2018-05-03T07:24:16.491Z,13.60
2018-05-03T07:25:20.734Z,7.10
2018-05-03T07:26:25.684Z,11.57
2018-05-03T07:27:29.856Z,15.50
2018-05-03T07:28:34.028Z,17.00
2018-05-03T07:29:38.193Z,14.43
2018-05-03T07:30:43.723Z,10.10
2018-05-03T07:31:47.970Z,8.53
2018-05-03T07:32:52.141Z,15.60
2018-05-03T07:33:56.309Z,12.00
2018-05-03T07:35:00.487Z,24.63
2018-05-03T07:36:05.453Z,17.33
2018-05-03T07:37:09.617Z,9.87
2018-05-03T07:38:14.585Z,10.90
2018-05-03T07:39:19.516Z,7.20
2018-05-03T07:40:23.680Z,14.93
2018-05-03T07:41:29.017Z,11.03
2018-05-03T07:42:33.963Z,14.50
2018-05-03T07:43:38.129Z,7.63
2018-05-03T07:44:42.310Z,10.50
2018-05-03T07:45:46.567Z,17.67
2018-05-03T07:46:51.205Z,15.93
2018-05-03T07:47:56.145Z,13.80
2018-05-03T07:49:00.322Z,13.77
2018-05-03T07:50:04.496Z,12.63
2018-05-03T07:51:08.673Z,11.43
2018-05-03T07:52:12.888Z,11.33
2018-05-03T07:53:17.049Z,12.80
2018-05-03T07:54:21.385Z,15.37
2018-05-03T07:55:26.331Z,11.90
2018-05-03T07:56:30.506Z,10.07
2018-05-03T07:57:34.678Z,9.70
2018-05-03T07:58:38.845Z,16.30
2018-05-03T07:59:43.371Z,17.40
2018-05-03T08:00:48.322Z,11.27
2018-05-03T08:01:52.493Z,12.23
2018-05-03T08:02:56.729Z,20.90
2018-05-03T08:04:00.897Z,10.37
2018-05-03T08:05:05.094Z,12.07
2018-05-03T08:06:10.058Z,8.10
2018-05-03T08:07:14.244Z,13.03
2018-05-03T08:08:18.418Z,8.67
2018-05-03T08:09:22.598Z,14.77
2018-05-03T08:10:27.569Z,14.27
2018-05-03T08:11:31.733Z,15.43
2018-05-03T08:12:36.678Z,19.83
2018-05-03T08:13:40.849Z,7.67
2018-05-03T08:14:45.026Z,10.57
2018-05-03T08:15:49.228Z,12.80
2018-05-03T08:16:53.402Z,8.10
2018-05-03T08:17:58.352Z,15.27
2018-05-03T08:19:02.520Z,10.00
2018-05-03T08:20:06.732Z,9.90
2018-05-03T08:21:11.676Z,11.70
2018-05-03T08:22:16.621Z,12.00
2018-05-03T08:23:20.935Z,6.10
2018-05-03T08:24:25.123Z,10.77
2018-05-03T08:25:30.172Z,10.37
2018-05-03T08:26:34.349Z,7.97
2018-05-03T08:27:38.534Z,13.03
2018-05-03T08:28:42.702Z,6.00
2018-05-03T08:29:46.880Z,9.80
2018-05-03T08:30:51.106Z,14.30
2018-05-03T08:31:56.046Z,19.63
2018-05-03T08:33:00.210Z,14.00
2018-05-03T08:34:05.908Z,10.17
2018-05-03T08:35:10.073Z,6.30
2018-05-03T08:36:14.720Z,8.33
2018-05-03T08:37:19.754Z,4.00
2018-05-03T08:38:24.697Z,8.20
2018-05-03T08:39:28.929Z,14.87
2018-05-03T08:40:33.106Z,10.17
2018-05-03T08:41:38.071Z,5.87
2018-05-03T08:42:42.256Z,11.37
2018-05-03T08:43:46.475Z,10.10
2018-05-03T08:44:50.645Z,10.23
2018-05-03T08:45:56.315Z,11.70
2018-05-03T08:47:00.490Z,10.90
2018-05-03T08:48:04.686Z,10.57
2018-05-03T08:49:08.857Z,16.00
2018-05-03T08:50:13.049Z,12.93
2018-05-03T08:51:17.977Z,13.37
2018-05-03T08:52:22.919Z,6.60
2018-05-03T08:53:27.080Z,13.40
2018-05-03T08:54:31.248Z,10.87
2018-05-03T08:55:35.507Z,9.80
2018-05-03T08:56:39.671Z,15.17
2018-05-03T08:57:44.201Z,16.13
2018-05-03T08:58:48.364Z,5.10
2018-05-03T08:59:53.309Z,12.60
2018-05-03T09:00:57.498Z,7.43
2018-05-03T09:02:02.633Z,10.07
2018-05-03T09:03:07.573Z,14.60
2018-05-03T09:04:12.506Z,7.33
2018-05-03T09:05:17.445Z,12.80
2018-05-03T09:06:21.647Z,14.87
2018-05-03T09:07:25.868Z,15.63
2018-05-03T09:08:30.060Z,15.70
2018-05-03T09:09:34.994Z,9.97
2018-05-03T09:10:39.173Z,7.67
2018-05-03T09:11:44.096Z,9.60
2018-05-03T09:12:48.301Z,7.87
2018-05-03T09:13:52.464Z,12.63
2018-05-03T09:14:56.640Z,8.23
2018-05-03T09:16:01.593Z,6.93
2018-05-03T09:17:05.794Z,8.80
2018-05-03T09:18:10.731Z,8.97
2018-05-03T09:19:14.952Z,6.87
2018-05-03T09:20:19.159Z,6.83
2018-05-03T09:21:23.329Z,5.63
2018-05-03T09:22:27.560Z,5.97
2018-05-03T09:23:31.681Z,6.30
2018-05-03T09:24:36.629Z,6.97
2018-05-03T09:25:40.830Z,12.30
2018-05-03T09:26:45.008Z,8.03
2018-05-03T09:27:49.285Z,6.47
2018-05-03T09:28:53.451Z,6.30
2018-05-03T09:29:57.641Z,10.93
2018-05-03T09:31:01.810Z,4.90
2018-05-03T09:32:05.985Z,9.83
2018-05-03T09:33:10.144Z,4.80
2018-05-03T09:34:14.505Z,17.13
2018-05-03T09:35:18.736Z,13.20
2018-05-03T09:36:22.909Z,7.73
2018-05-03T09:37:27.852Z,6.13
2018-05-03T09:38:32.789Z,9.43
2018-05-03T09:39:36.977Z,9.40
2018-05-03T09:40:41.908Z,5.60
2018-05-03T09:41:46.871Z,6.77
2018-05-03T09:42:51.055Z,7.43
2018-05-03T09:43:55.981Z,9.67
2018-05-03T09:45:00.905Z,6.73
2018-05-03T09:46:05.842Z,7.90
2018-05-03T09:47:10.079Z,14.83
2018-05-03T09:48:14.257Z,12.40
2018-05-03T09:49:19.199Z,8.80
2018-05-03T09:50:23.485Z,14.73
2018-05-03T09:51:28.433Z,13.73
2018-05-03T09:52:32.834Z,9.80
2018-05-03T09:53:37.018Z,11.50
2018-05-03T09:54:41.193Z,6.50
2018-05-03T09:55:45.353Z,8.43
2018-05-03T09:56:49.522Z,7.27
2018-05-03T09:57:53.700Z,10.37
2018-05-03T09:58:57.864Z,7.30
2018-05-03T10:00:02.040Z,7.33
2018-05-03T10:01:06.224Z,5.60
2018-05-03T10:02:10.436Z,5.40
2018-05-03T10:03:15.417Z,5.33
2018-05-03T10:04:19.582Z,8.37
2018-05-03T10:05:23.746Z,5.73
2018-05-03T10:06:29.409Z,9.93
2018-05-03T10:07:34.341Z,13.87
2018-05-03T10:08:39.384Z,8.60
2018-05-03T10:09:44.326Z,22.80
2018-05-03T10:10:48.526Z,13.80
2018-05-03T10:11:52.694Z,7.87
2018-05-03T10:12:56.862Z,8.73
2018-05-03T10:14:01.051Z,7.10
2018-05-03T10:15:06.171Z,7.27
2018-05-03T10:16:11.140Z,10.30
2018-05-03T10:17:15.300Z,9.60
2018-05-03T10:18:19.460Z,7.73
2018-05-03T10:19:23.640Z,8.37
2018-05-03T10:20:28.602Z,5.53
2018-05-03T10:21:32.796Z,18.73
2018-05-03T10:22:37.197Z,6.33
2018-05-03T10:23:41.372Z,14.43
2018-05-03T10:24:47.159Z,7.27
2018-05-03T10:25:51.466Z,7.00
2018-05-03T10:26:56.425Z,6.27
2018-05-03T10:28:00.797Z,8.07
2018-05-03T10:29:04.988Z,13.30
2018-05-03T10:30:09.177Z,5.87
2018-05-03T10:31:13.353Z,5.83
2018-05-03T10:32:17.517Z,5.97
2018-05-03T10:33:23.391Z,4.33
2018-05-03T10:34:28.317Z,5.37
2018-05-03T10:35:33.245Z,6.13
2018-05-03T10:36:37.413Z,9.07
2018-05-03T10:37:41.580Z,4.27
2018-05-03T10:38:45.769Z,4.60
2018-05-03T10:39:50.700Z,5.20
2018-05-03T10:40:55.642Z,6.70
2018-05-03T10:42:00.623Z,9.50
2018-05-03T10:43:04.829Z,8.30
2018-05-03T10:44:09.020Z,7.03
2018-05-03T10:45:13.196Z,6.83
2018-05-03T10:46:18.122Z,6.63
2018-05-03T10:47:23.062Z,8.53
2018-05-03T10:48:30.255Z,10.03
2018-05-03T10:49:35.081Z,5.10
2018-05-03T10:50:39.780Z,8.10
2018-05-03T10:51:44.722Z,7.93
2018-05-03T10:52:48.880Z,8.77
2018-05-03T10:53:54.558Z,9.23
2018-05-03T10:54:59.492Z,5.67
2018-05-03T10:56:03.737Z,7.70
2018-05-03T10:57:07.893Z,7.93
2018-05-03T10:58:12.825Z,6.77
2018-05-03T10:59:17.749Z,5.97
2018-05-03T11:00:22.681Z,9.37
2018-05-03T11:01:27.647Z,4.80
2018-05-03T11:02:31.804Z,9.03
2018-05-03T11:03:35.960Z,5.33
2018-05-03T11:04:40.120Z,5.77
2018-05-03T11:05:44.303Z,4.47
2018-05-03T11:06:48.528Z,4.37
2018-05-03T11:07:52.710Z,6.47
2018-05-03T11:08:56.864Z,9.53
2018-05-03T11:10:01.025Z,5.23
2018-05-03T11:11:05.292Z,4.83
2018-05-03T11:12:09.425Z,5.20
2018-05-03T11:13:13.637Z,11.77
2018-05-03T11:14:17.838Z,7.73
2018-05-03T11:15:22.766Z,11.03
2018-05-03T11:16:27.693Z,11.63
2018-05-03T11:17:32.625Z,5.93
2018-05-03T11:18:36.814Z,8.23
2018-05-03T11:19:41.742Z,7.03
2018-05-03T11:20:46.701Z,10.90
2018-05-03T11:21:50.857Z,4.30
2018-05-03T11:22:55.037Z,6.27
2018-05-03T11:23:59.211Z,3.93
2018-05-03T11:25:04.153Z,9.30
2018-05-03T11:26:08.380Z,3.03
2018-05-03T11:27:12.549Z,6.23
2018-05-03T11:28:16.737Z,5.47
2018-05-03T11:29:22.410Z,2.57
2018-05-03T11:30:27.342Z,8.50
2018-05-03T11:31:32.312Z,8.07
2018-05-03T11:32:36.570Z,4.50
2018-05-03T11:33:40.724Z,6.00
2018-05-03T11:34:44.894Z,5.50
2018-05-03T11:35:49.822Z,8.53
2018-05-03T11:36:54.882Z,7.27
2018-05-03T11:37:58.974Z,2.87
2018-05-03T11:39:03.173Z,8.10
2018-05-03T11:40:08.105Z,7.40
2018-05-03T11:41:13.037Z,6.97
2018-05-03T11:42:18.030Z,4.60
2018-05-03T11:43:22.192Z,5.27
2018-05-03T11:44:26.688Z,4.03
2018-05-03T11:45:31.623Z,5.80
2018-05-03T11:46:36.548Z,7.60
2018-05-03T11:47:41.526Z,7.40
2018-05-03T11:48:45.959Z,4.73
2018-05-03T11:49:50.069Z,8.37
2018-05-03T11:50:54.224Z,7.13
2018-05-03T11:51:58.399Z,4.53
2018-05-03T11:53:04.065Z,3.53
2018-05-03T11:54:08.469Z,11.40
2018-05-03T11:55:12.657Z,6.07
2018-05-03T11:56:18.339Z,6.83
2018-05-03T11:57:23.271Z,4.47
2018-05-03T11:58:27.473Z,5.60
2018-05-03T11:59:32.460Z,5.53
2018-05-03T12:00:36.625Z,6.43
2018-05-03T12:01:40.842Z,3.47
2018-05-03T12:02:45.009Z,2.30
2018-05-03T12:03:50.680Z,8.60
2018-05-03T12:04:55.613Z,7.37
2018-05-03T12:05:59.789Z,5.93
2018-05-03T12:07:03.994Z,5.00
2018-05-03T12:08:09.656Z,5.57
2018-05-03T12:09:14.588Z,6.43
2018-05-03T12:10:19.633Z,9.80
2018-05-03T12:11:24.568Z,4.97
2018-05-03T12:12:28.800Z,10.00
2018-05-03T12:13:32.972Z,9.40
2018-05-03T12:14:37.896Z,9.57
2018-05-03T12:15:42.824Z,5.57
2018-05-03T12:16:47.752Z,3.83
2018-05-03T12:17:52.793Z,4.27
2018-05-03T12:18:57.722Z,6.80
2018-05-03T12:20:01.893Z,5.70
2018-05-03T12:21:07.564Z,11.83
2018-05-03T12:22:12.497Z,4.73
2018-05-03T12:23:17.451Z,4.77
2018-05-03T12:24:21.666Z,3.27
2018-05-03T12:25:26.569Z,3.73
2018-05-03T12:26:30.745Z,2.80
2018-05-03T12:27:36.423Z,6.83
2018-05-03T12:28:41.448Z,4.20
2018-05-03T12:29:46.429Z,6.97
2018-05-03T12:30:50.589Z,3.10
2018-05-03T12:31:55.537Z,3.67
2018-05-03T12:32:59.773Z,6.47
2018-05-03T12:34:05.478Z,3.47
2018-05-03T12:35:09.870Z,3.70
2018-05-03T12:36:14.035Z,5.47
2018-05-03T12:37:18.192Z,3.93
2018-05-03T12:38:22.348Z,4.40
2018-05-03T12:39:26.515Z,4.27
2018-05-03T12:40:31.506Z,4.00
2018-05-03T12:41:35.689Z,2.53
2018-05-03T12:42:39.849Z,4.27
2018-05-03T12:43:45.525Z,2.83
2018-05-03T12:44:50.470Z,5.03
2018-05-03T12:45:54.846Z,5.40
2018-05-03T12:46:59.011Z,4.47
2018-05-03T12:48:03.183Z,2.10
2018-05-03T12:49:08.119Z,3.70
2018-05-03T12:50:12.272Z,2.33
2018-05-03T12:51:16.456Z,3.90
2018-05-03T12:52:20.621Z,4.07
2018-05-03T12:53:24.789Z,4.83
2018-05-03T12:54:29.144Z,2.87
2018-05-03T12:55:34.080Z,2.70
2018-05-03T12:56:39.004Z,2.17
2018-05-03T12:57:43.936Z,2.20
2018-05-03T12:58:48.864Z,1.93
2018-05-03T12:59:54.306Z,6.13
2018-05-03T13:00:58.482Z,4.87
2018-05-03T13:02:02.740Z,2.40
2018-05-03T13:03:06.909Z,3.83
2018-05-03T13:04:12.579Z,4.67
2018-05-03T13:05:17.517Z,3.23
2018-05-03T13:06:21.685Z,4.20
2018-05-03T13:07:25.905Z,1.43
2018-05-03T13:08:31.585Z,6.83
2018-05-03T13:09:35.750Z,2.33
2018-05-03T13:10:39.914Z,2.70
2018-05-03T13:11:44.080Z,1.93
2018-05-03T13:12:49.950Z,0.80
2018-05-03T13:13:54.891Z,1.63
2018-05-03T13:14:59.813Z,4.77
2018-05-03T13:16:04.758Z,4.97
2018-05-03T13:17:08.932Z,0.80
2018-05-03T13:18:13.248Z,5.93
2018-05-03T13:19:17.414Z,2.00
2018-05-03T13:20:21.577Z,2.70
2018-05-03T13:21:26.500Z,2.43
2018-05-03T13:22:31.433Z,5.43
2018-05-03T13:23:36.384Z,4.20
2018-05-03T13:24:40.545Z,2.37
2018-05-03T13:25:45.482Z,7.90
2018-05-03T13:26:49.651Z,2.10
2018-05-03T13:27:53.820Z,1.80
2018-05-03T13:28:58.790Z,6.90
2018-05-03T13:30:02.960Z,3.70
2018-05-03T13:31:07.129Z,1.63
2018-05-03T13:32:11.297Z,2.60
2018-05-03T13:33:15.462Z,3.97
2018-05-03T13:34:21.275Z,2.30
2018-05-03T13:35:25.440Z,5.07
2018-05-03T13:36:30.365Z,8.03
2018-05-03T13:37:35.297Z,3.00
2018-05-03T13:38:40.241Z,4.50
2018-05-03T13:39:44.641Z,3.37
2018-05-03T13:40:49.590Z,2.23
2018-05-03T13:41:53.752Z,4.70
2018-05-03T13:42:57.921Z,4.60
2018-05-03T13:44:02.121Z,7.13
2018-05-03T13:45:06.504Z,2.77
2018-05-03T13:46:11.438Z,3.07
2018-05-03T13:47:16.365Z,5.93
2018-05-03T13:48:21.297Z,2.60
2018-05-03T13:49:26.220Z,5.27
2018-05-03T13:50:31.179Z,6.03
2018-05-03T13:51:35.388Z,3.60
2018-05-03T13:52:39.555Z,5.10
2018-05-03T13:53:45.217Z,5.87
2018-05-03T13:54:50.169Z,4.30
2018-05-03T13:55:54.373Z,3.00
2018-05-03T13:56:58.604Z,6.23
2018-05-03T13:58:02.769Z,3.63
2018-05-03T13:59:07.688Z,3.07
2018-05-03T14:00:11.849Z,3.37
2018-05-03T14:01:16.005Z,2.17
2018-05-03T14:02:20.217Z,2.50
2018-05-03T14:03:24.376Z,2.80
2018-05-03T14:04:28.533Z,2.87
2018-05-03T14:05:34.222Z,2.30
2018-05-03T14:06:38.400Z,0.80
2018-05-03T14:07:43.353Z,4.20
2018-05-03T14:08:47.563Z,2.63
2018-05-03T14:09:51.725Z,3.50
2018-05-03T14:10:55.897Z,3.43
2018-05-03T14:12:00.062Z,4.00
2018-05-03T14:13:04.239Z,3.50
2018-05-03T14:14:08.432Z,3.33
2018-05-03T14:15:12.657Z,2.90
2018-05-03T14:16:16.816Z,3.83
2018-05-03T14:17:21.740Z,3.40
2018-05-03T14:18:26.673Z,5.07
2018-05-03T14:19:31.596Z,2.53
2018-05-03T14:20:36.618Z,2.20
2018-05-03T14:21:41.561Z,7.67
2018-05-03T14:22:46.557Z,3.40
2018-05-03T14:23:50.723Z,2.70
2018-05-03T14:24:54.889Z,4.87
2018-05-03T14:25:59.115Z,3.33
2018-05-03T14:27:04.273Z,4.53
2018-05-03T14:28:08.434Z,6.40
2018-05-03T14:29:12.604Z,2.20